Time;durP1;ratioP1;P1;durP2;ratioP2;P2;SDS_P1;SDS_P2;PMS_P1;PMS_P2;Temp;Humidity;BMP_temperature;BMP_pressure;BME280_temperature;BME280_humidity;BME280_pressure;Samples;Min_cycle;Max_cycle;Signal;HPM_P1;HPM_P2
2024/03/18 00:04:09;;;;;;;4.50;2.00;;;;;;;-0.47;83.59;99801.48;450330;1236;139064;-64
2024/03/18 00:14:13;;;;;;;1.70;1.20;;;;;;;-0.52;83.85;99798.80;449243;1236;139482;-59
2024/03/18 00:24:17;;;;;;;2.00;1.60;;;;;;;-0.54;83.85;99802.27;449042;1240;140034;-58
2024/03/18 00:34:20;;;;;;;1.50;1.20;;;;;;;-0.59;83.95;99794.59;448862;1240;139584;-57
2024/03/18 00:44:24;;;;;;;2.70;1.90;;;;;;;-0.67;84.14;99791.43;447164;1240;139463;-58
2024/03/18 00:54:27;;;;;;;1.70;1.30;;;;;;;-0.71;84.16;99780.66;447461;1241;139777;-60
2024/03/18 01:04:30;;;;;;;1.40;1.10;;;;;;;-0.78;84.03;99777.16;447731;1236;138846;-60
2024/03/18 01:14:33;;;;;;;1.40;0.90;;;;;;;-0.88;84.23;99772.48;448008;1237;140116;-59
2024/03/18 01:24:37;;;;;;;1.30;0.90;;;;;;;-0.88;84.77;99774.55;448440;1239;138996;-59
2024/03/18 01:34:40;;;;;;;2.30;1.60;;;;;;;-0.87;84.59;99772.46;447378;1236;139398;-58
2024/03/18 01:44:53;;;;;;;3.20;1.30;;;;;;;-0.88;84.65;99763.02;447282;1240;140538;-59
2024/03/18 01:54:57;;;;;;;1.60;1.50;;;;;;;-0.91;84.72;99760.67;447707;1236;138837;-59
2024/03/18 02:05:01;;;;;;;3.10;1.30;;;;;;;-0.91;84.97;99759.11;447780;1240;139322;-60
2024/03/18 02:15:06;;;;;;;1.90;0.80;;;;;;;-0.93;85.29;99750.04;447927;1240;139243;-58
2024/03/18 02:25:10;;;;;;;2.40;1.10;;;;;;;-0.91;85.55;99743.15;447785;1240;139596;-60
2024/03/18 02:35:16;;;;;;;1.50;1.30;;;;;;;-0.93;85.64;99742.48;447669;1236;139007;-58
2024/03/18 02:45:18;;;;;;;;;;;;;;;-0.99;85.45;99743.41;448102;1239;138826;-63
2024/03/18 02:55:22;;;;;;;1.60;1.50;;;;;;;-1.08;85.55;99744.75;447568;1240;125436;-63
2024/03/18 03:05:25;;;;;;;2.40;1.40;;;;;;;-1.18;85.53;99744.88;447969;1240;139068;-60
2024/03/18 03:15:29;;;;;;;3.10;2.50;;;;;;;-1.17;85.91;99740.39;447734;1240;139923;-59
2024/03/18 03:25:32;;;;;;;2.20;1.50;;;;;;;-1.13;86.05;99747.38;447675;1241;139090;-58
2024/03/18 03:35:35;;;;;;;5.20;1.30;;;;;;;-1.10;86.11;99742.36;447834;1239;138852;-60
2024/03/18 03:45:38;;;;;;;7.90;1.50;;;;;;;-1.08;85.78;99741.66;447437;1240;138812;-61
2024/03/18 03:55:41;;;;;;;1.00;0.90;;;;;;;-1.07;85.71;99739.07;447620;1237;139344;-62
2024/03/18 04:05:45;;;;;;;1.80;1.40;;;;;;;-1.08;85.55;99739.42;447517;1240;139366;-59
2024/03/18 04:15:49;;;;;;;4.20;1.20;;;;;;;-1.10;85.69;99742.20;447460;1240;139487;-59
2024/03/18 04:25:52;;;;;;;2.50;1.70;;;;;;;-1.09;85.76;99741.16;447281;1240;139033;-62
2024/03/18 04:35:55;;;;;;;3.20;1.80;;;;;;;-1.08;86.05;99735.98;447203;1240;138910;-62
2024/03/18 04:45:59;;;;;;;3.90;2.00;;;;;;;-1.04;85.91;99739.70;447454;1238;139155;-60
2024/03/18 04:56:02;;;;;;;3.20;1.30;;;;;;;-1.04;85.38;99744.35;447087;1241;139771;-59
2024/03/18 05:06:06;;;;;;;2.00;1.30;;;;;;;-1.02;85.34;99749.48;447200;1241;139563;-59
2024/03/18 05:16:09;;;;;;;1.00;1.00;;;;;;;-1.00;85.14;99750.82;447419;1240;139407;-64
2024/03/18 05:26:12;;;;;;;2.00;1.30;;;;;;;-0.96;84.98;99745.79;447353;1240;139303;-64
2024/03/18 05:36:15;;;;;;;3.00;0.80;;;;;;;-0.91;84.70;99736.08;447542;1240;139844;-62
2024/03/18 05:46:18;;;;;;;1.20;0.50;;;;;;;-0.83;84.33;99731.84;447233;1240;139277;-64
2024/03/18 05:56:22;;;;;;;2.00;1.10;;;;;;;-0.71;84.64;99741.48;447625;1240;139886;-63
2024/03/18 06:06:25;;;;;;;2.10;1.50;;;;;;;-0.61;84.42;99732.38;448841;1240;138853;-60
2024/03/18 06:16:28;;;;;;;2.10;1.80;;;;;;;-0.46;84.14;99734.89;448316;1240;140019;-61
2024/03/18 06:26:32;;;;;;;5.10;1.70;;;;;;;-0.36;83.99;99733.52;447298;1240;139282;-59
2024/03/18 06:36:37;;;;;;;2.00;1.40;;;;;;;-0.27;83.76;99734.23;447530;1241;138903;-58
2024/03/18 06:46:40;;;;;;;3.30;1.80;;;;;;;-0.25;83.69;99732.13;443554;1240;5112641;-57
2024/03/18 06:56:43;;;;;;;4.80;1.60;;;;;;;-0.25;83.68;99726.80;447103;1240;139490;-71
2024/03/18 07:06:46;;;;;;;5.10;1.30;;;;;;;-0.20;83.85;99727.06;447728;1239;139013;-70
2024/03/18 07:16:50;;;;;;;1.80;1.30;;;;;;;-0.21;83.77;99730.52;447962;1240;139710;-57
2024/03/18 07:26:53;;;;;;;3.50;3.10;;;;;;;-0.19;83.91;99728.75;448330;1240;138897;-55
2024/03/18 07:36:56;;;;;;;2.90;1.60;;;;;;;-0.14;83.95;99735.57;447032;1239;139835;-56
2024/03/18 07:47:00;;;;;;;3.10;1.70;;;;;;;-0.10;84.11;99738.41;449235;1240;140442;-58
2024/03/18 07:57:06;;;;;;;4.40;1.30;;;;;;;0.04;84.17;99739.04;447930;1240;139220;-57
2024/03/18 08:07:08;;;;;;;;;;;;;;;0.19;84.16;99742.20;447260;1240;139681;-57
2024/03/18 08:17:11;;;;;;;2.50;1.30;;;;;;;0.32;83.91;99734.17;447014;1241;125532;-60
2024/03/18 08:27:15;;;;;;;3.20;1.60;;;;;;;0.52;83.84;99725.02;447031;1240;139112;-63
2024/03/18 08:37:21;;;;;;;2.90;2.00;;;;;;;0.68;83.57;99728.64;447561;1240;139117;-61
2024/03/18 08:47:24;;;;;;;2.20;1.40;;;;;;;0.75;83.24;99733.51;447517;1240;139235;-66
2024/03/18 08:57:29;;;;;;;4.60;2.60;;;;;;;0.72;83.16;99731.66;447023;1236;138647;-71
2024/03/18 09:07:32;;;;;;;3.60;2.10;;;;;;;0.68;82.88;99731.39;446765;1238;139259;-66
2024/03/18 09:17:35;;;;;;;2.40;1.70;;;;;;;0.62;82.87;99732.58;446800;1239;139454;-70
2024/03/18 09:27:39;;;;;;;4.20;3.10;;;;;;;0.73;83.19;99730.63;447421;1239;138989;-62
2024/03/18 09:37:43;;;;;;;4.60;2.90;;;;;;;0.95;83.42;99730.31;447188;1239;138832;-63
2024/03/18 09:47:48;;;;;;;3.70;3.20;;;;;;;1.16;83.44;99726.23;447071;1238;139213;-57
2024/03/18 09:57:52;;;;;;;3.80;2.60;;;;;;;1.19;83.15;99729.26;447141;1240;139146;-61
2024/03/18 10:07:56;;;;;;;4.90;2.80;;;;;;;1.17;83.17;99725.84;446895;1241;139487;-58
2024/03/18 10:18:00;;;;;;;5.10;3.10;;;;;;;1.29;83.25;99725.26;446965;1240;139806;-60
2024/03/18 10:28:06;;;;;;;2.40;2.30;;;;;;;1.34;83.71;99724.79;447553;1238;139418;-58
2024/03/18 10:38:16;;;;;;;3.00;2.60;;;;;;;1.45;83.53;99720.55;448213;1237;139681;-59
2024/03/18 10:48:20;;;;;;;8.00;2.70;;;;;;;1.59;83.62;99712.10;448334;1238;139923;-57
2024/03/18 10:58:26;;;;;;;4.00;3.10;;;;;;;2.06;83.60;99708.13;447254;1238;139375;-57
2024/03/18 11:08:30;;;;;;;4.60;2.90;;;;;;;2.45;83.08;99707.92;448198;1239;140474;-59
2024/03/18 11:18:35;;;;;;;4.80;3.50;;;;;;;2.28;82.19;99710.48;448517;1239;139265;-53
2024/03/18 11:28:41;;;;;;;6.00;3.70;;;;;;;2.03;82.60;99706.98;447641;1240;139416;-61
2024/03/18 11:38:45;;;;;;;4.10;3.40;;;;;;;2.09;83.32;99706.66;447342;1240;139856;-61
2024/03/18 11:48:48;;;;;;;3.90;3.50;;;;;;;2.21;83.37;99707.88;447408;1236;139623;-64
2024/03/18 11:58:54;;;;;;;3.80;3.20;;;;;;;2.27;83.37;99697.89;447565;1240;139777;-66
2024/03/18 12:08:58;;;;;;;6.40;3.40;;;;;;;2.18;84.05;99696.77;450456;1240;139669;-65
2024/03/18 12:19:05;;;;;;;3.90;3.10;;;;;;;2.21;84.47;99692.18;447153;1236;139199;-69
2024/03/18 12:29:20;;;;;;;5.30;3.90;;;;;;;2.29;84.35;99693.86;447264;1240;139214;-63
2024/03/18 12:39:24;;;;;;;4.10;3.70;;;;;;;2.48;84.79;99690.38;447793;1240;139307;-62
2024/03/18 12:49:27;;;;;;;5.20;3.60;;;;;;;2.57;84.37;99686.48;447399;1236;139460;-69
2024/03/18 12:59:32;;;;;;;4.70;3.80;;;;;;;2.45;84.17;99687.70;447448;1240;139785;-58
2024/03/18 13:09:35;;;;;;;7.60;4.30;;;;;;;2.66;84.95;99691.07;447185;1240;139042;-60
2024/03/18 13:19:38;;;;;;;6.00;4.90;;;;;;;2.94;84.85;99681.92;447461;1240;138765;-60
2024/03/18 13:29:42;;;;;;;4.10;3.20;;;;;;;2.91;84.79;99685.82;447613;1239;139203;-63
2024/03/18 13:39:45;;;;;;;4.50;4.00;;;;;;;2.70;83.96;99688.54;447515;1239;138866;-58
2024/03/18 13:49:48;;;;;;;5.40;3.60;;;;;;;2.55;84.29;99687.58;447388;1236;139510;-58
2024/03/18 13:59:53;;;;;;;5.40;4.30;;;;;;;2.42;84.24;99683.14;447334;1236;139218;-61
2024/03/18 14:09:59;;;;;;;3.90;3.40;;;;;;;2.31;84.30;99684.81;446855;1240;139765;-60
2024/03/18 14:20:05;;;;;;;4.90;4.20;;;;;;;2.14;84.24;99687.35;446908;1235;138751;-50
2024/03/18 14:30:09;;;;;;;6.10;4.90;;;;;;;2.03;84.47;99686.11;447359;1238;138652;-52
2024/03/18 14:40:14;;;;;;;6.20;4.60;;;;;;;1.95;84.44;99693.39;446888;1240;138760;-52
2024/03/18 14:50:17;;;;;;;7.30;4.90;;;;;;;1.91;84.64;99691.77;447504;1236;139321;-59
2024/03/18 15:00:21;;;;;;;7.70;5.70;;;;;;;1.92;85.18;99689.84;447002;1238;138732;-62
2024/03/18 15:10:24;;;;;;;5.70;5.00;;;;;;;1.90;85.02;99682.30;447523;1238;138933;-61
2024/03/18 15:20:27;;;;;;;8.40;6.50;;;;;;;1.84;85.23;99679.70;446977;1236;138837;-59
2024/03/18 15:30:31;;;;;;;7.60;5.10;;;;;;;1.80;85.56;99679.12;446951;1239;140023;-55
2024/03/18 15:40:34;;;;;;;6.30;5.00;;;;;;;1.77;85.89;99683.86;447160;1236;139314;-60
2024/03/18 15:50:37;;;;;;;7.50;5.70;;;;;;;1.73;85.85;99693.63;447317;1240;138822;-68
2024/03/18 16:00:40;;;;;;;7.60;5.40;;;;;;;1.72;86.09;99700.20;447120;1235;141393;-61
2024/03/18 16:10:44;;;;;;;8.30;5.70;;;;;;;1.73;86.38;99705.73;447255;1240;139498;-59
2024/03/18 16:20:47;;;;;;;6.80;5.30;;;;;;;1.72;86.11;99709.38;447275;1236;139244;-59
2024/03/18 16:30:50;;;;;;;8.60;6.30;;;;;;;1.70;86.29;99718.73;447578;1239;141156;-62
2024/03/18 16:40:53;;;;;;;6.40;5.30;;;;;;;1.66;86.17;99722.29;447705;1236;138938;-72
2024/03/18 16:50:57;;;;;;;5.30;4.60;;;;;;;1.60;86.47;99734.17;447757;1237;140287;-59
2024/03/18 17:01:01;;;;;;;5.60;4.30;;;;;;;1.52;86.58;99741.77;449075;1236;139200;-58
2024/03/18 17:11:07;;;;;;;6.80;6.10;;;;;;;1.43;87.09;99750.44;447663;1236;138665;-66
2024/03/18 17:21:11;;;;;;;7.60;5.30;;;;;;;1.34;87.23;99759.44;447272;1240;138798;-66
2024/03/18 17:31:14;;;;;;;6.70;5.80;;;;;;;1.30;87.73;99767.82;447915;1240;139663;-58
2024/03/18 17:41:17;;;;;;;7.70;6.80;;;;;;;1.27;88.15;99781.67;447727;1240;138973;-66
2024/03/18 17:51:28;;;;;;;8.40;6.40;;;;;;;1.25;88.49;99785.52;447707;1238;139965;-66
2024/03/18 18:01:31;;;;;;;7.50;6.60;;;;;;;1.23;88.94;99787.63;447548;1240;139929;-59
2024/03/18 18:11:37;;;;;;;5.80;5.20;;;;;;;1.21;89.39;99796.14;449182;1236;140702;-59
2024/03/18 18:21:41;;;;;;;7.30;6.60;;;;;;;1.16;89.61;99802.10;448845;1239;139121;-65
2024/03/18 18:31:44;;;;;;;8.30;7.30;;;;;;;1.09;89.84;99807.09;447700;1240;139441;-65
2024/03/18 18:41:47;;;;;;;11.10;7.80;;;;;;;1.03;90.30;99806.34;444380;1240;5081316;-64
2024/03/18 18:51:51;;;;;;;8.10;7.00;;;;;;;1.00;90.83;99816.06;447752;1236;140661;-65
2024/03/18 19:01:54;;;;;;;8.00;6.70;;;;;;;1.00;91.06;99819.70;447719;1240;139136;-58
2024/03/18 19:11:59;;;;;;;12.30;8.60;;;;;;;0.99;91.43;99826.09;447708;1240;139189;-59
2024/03/18 19:22:03;;;;;;;9.00;7.60;;;;;;;0.98;91.73;99824.70;448484;1236;138918;-59
2024/03/18 19:32:07;;;;;;;9.10;8.20;;;;;;;0.97;92.22;99825.94;447448;1239;139302;-59
2024/03/18 19:42:10;;;;;;;9.50;8.20;;;;;;;0.97;92.60;99827.66;448430;1239;139243;-60
2024/03/18 19:52:22;;;;;;;10.40;9.30;;;;;;;0.96;93.18;99823.73;448262;1239;139142;-58
2024/03/18 20:02:25;;;;;;;12.20;10.20;;;;;;;0.94;93.72;99826.70;447575;1240;139440;-65
2024/03/18 20:12:28;;;;;;;14.50;9.40;;;;;;;0.93;93.91;99829.13;447786;1239;139484;-64
2024/03/18 20:22:31;;;;;;;11.90;10.60;;;;;;;0.91;94.25;99835.90;447764;1240;139012;-57
2024/03/18 20:32:35;;;;;;;14.90;10.60;;;;;;;0.90;94.60;99840.92;447499;1240;139012;-64
2024/03/18 20:42:39;;;;;;;15.30;11.70;;;;;;;0.94;95.11;99839.97;447433;1239;139589;-62
2024/03/18 20:52:44;;;;;;;15.30;12.20;;;;;;;1.00;95.48;99846.23;447372;1236;139186;-62
2024/03/18 21:02:48;;;;;;;13.90;10.60;;;;;;;1.01;95.67;99852.07;447257;1240;139272;-58
2024/03/18 21:12:51;;;;;;;13.60;11.30;;;;;;;1.03;95.90;99855.66;447653;1236;139297;-64
2024/03/18 21:22:55;;;;;;;12.30;9.20;;;;;;;1.04;96.15;99865.44;447291;1236;139153;-63
2024/03/18 21:32:58;;;;;;;11.50;10.00;;;;;;;1.06;96.60;99857.84;447523;1240;139838;-65
2024/03/18 21:43:01;;;;;;;9.00;7.70;;;;;;;1.05;97.26;99859.75;448645;1236;140090;-64
2024/03/18 21:53:05;;;;;;;9.00;7.40;;;;;;;1.03;97.31;99857.55;447451;1240;138977;-58
2024/03/18 22:03:08;;;;;;;9.90;8.60;;;;;;;0.98;97.81;99860.91;449131;1239;138926;-57
2024/03/18 22:13:12;;;;;;;10.90;8.90;;;;;;;0.92;97.99;99867.94;448622;1240;139050;-63
2024/03/18 22:23:15;;;;;;;10.60;8.00;;;;;;;0.87;98.43;99866.83;449187;1240;139067;-64
2024/03/18 22:33:19;;;;;;;10.50;9.10;;;;;;;0.87;98.81;99872.86;448373;1240;139748;-64
2024/03/18 22:43:22;;;;;;;10.90;9.40;;;;;;;0.89;99.49;99871.44;447866;1240;138982;-65
2024/03/18 22:53:25;;;;;;;12.70;10.50;;;;;;;0.92;99.83;99878.10;447718;1240;139252;-58
2024/03/18 23:03:29;;;;;;;12.80;10.50;;;;;;;0.91;99.95;99878.13;449168;1240;140014;-58
2024/03/18 23:13:32;;;;;;;12.10;9.30;;;;;;;0.88;100.00;99884.21;449584;1236;140145;-62
2024/03/18 23:23:35;;;;;;;12.00;9.90;;;;;;;0.92;100.00;99889.84;449008;1240;139030;-61
2024/03/18 23:33:38;;;;;;;14.80;11.60;;;;;;;0.95;100.00;99891.50;449543;1240;139572;-58
2024/03/18 23:43:41;;;;;;;13.90;10.80;;;;;;;0.97;100.00;99890.77;447441;1239;139824;-58
2024/03/18 23:53:46;;;;;;;14.70;12.20;;;;;;;0.98;100.00;99896.42;447509;1241;139741;-62
